PWSweather.com
Personal Weather Stations
Station Observations
RIVERSBEND
Rivers Bend, Heathsville, VA 22473

Rivers BendHeathsville, VA 22473

Lat: 37.87, Lon: -76.39

Elevation: 45

Station Type: Oregon Scientific WMR968

High Low Average
Temperature 50.5°F10.3°C 43.9°F6.6°C 47.5°F8.6°C
Dew Point 24.1°F-4.4°C 6.3°F-14.3°C 9.9°F-12.3°C
Winds 3.0 mph 4.8 kmh Calm Calm 1.0 mph NW1.6 kmh NW
Wind Gusts 8.7 mph14.0 kmh -- 3.0 mph4.8 kmh
Humidity 37% 19% 22%
Pressure 29.94 in1013.9 mb 29.88 in1011.9 mb -
Precipitation 0.00 in0.0 mm - -
Hour Temp Dew Point Humidity Winds Wind Gusts Pressure Precip Precip Rate Daily Precip Total
12:03 AM 50.5°F10.3°C 20.3°F-6.5°C 30% Calm Calm -- 29.88 in1011.9 mb 0.00 in0.0 mm 0.00 in/hr0.0 mm/hr 0.00 in0.0 mm
12:13 AM 50.5°F10.3°C 17.8°F-7.9°C 27% Calm Calm -- 29.88 in1011.9 mb 0.00 in0.0 mm 0.00 in/hr0.0 mm/hr 0.00 in0.0 mm
12:23 AM 50.4°F10.2°C 18.5°F-7.5°C 28% Calm Calm -- 29.88 in1011.9 mb 0.00 in0.0 mm 0.00 in/hr0.0 mm/hr 0.00 in0.0 mm
12:33 AM 50.4°F10.2°C 18.5°F-7.5°C 28% Calm Calm -- 29.88 in1011.9 mb 0.00 in0.0 mm 0.00 in/hr0.0 mm/hr 0.00 in0.0 mm
12:43 AM 50.2°F10.1°C 19.2°F-7.1°C 29% Calm Calm -- 29.88 in1011.9 mb 0.00 in0.0 mm 0.00 in/hr0.0 mm/hr 0.00 in0.0 mm
12:53 AM 50.0°F10.0°C 18.1°F-7.7°C 28% Calm Calm -- 29.88 in1011.9 mb 0.00 in0.0 mm 0.00 in/hr0.0 mm/hr 0.00 in0.0 mm
01:03 AM 49.8°F9.9°C 21.2°F-6.0°C 32% Calm Calm -- 29.88 in1011.9 mb 0.00 in0.0 mm 0.00 in/hr0.0 mm/hr 0.00 in0.0 mm
01:13 AM 49.6°F9.8°C 21.0°F-6.1°C 32% Calm Calm -- 29.88 in1011.9 mb 0.00 in0.0 mm 0.00 in/hr0.0 mm/hr 0.00 in0.0 mm
01:23 AM 49.6°F9.8°C 22.5°F-5.3°C 34% Calm Calm -- 29.88 in1011.9 mb 0.00 in0.0 mm 0.00 in/hr0.0 mm/hr 0.00 in0.0 mm
01:33 AM 49.5°F9.7°C 18.5°F-7.5°C 29% Calm Calm -- 29.88 in1011.9 mb 0.00 in0.0 mm 0.00 in/hr0.0 mm/hr 0.00 in0.0 mm
01:43 AM 49.3°F9.6°C 24.1°F-4.4°C 37% Calm Calm -- 29.88 in1011.9 mb 0.00 in0.0 mm 0.00 in/hr0.0 mm/hr 0.00 in0.0 mm
01:53 AM 49.1°F9.5°C 23.9°F-4.5°C 37% Calm Calm -- 29.88 in1011.9 mb 0.00 in0.0 mm 0.00 in/hr0.0 mm/hr 0.00 in0.0 mm
02:03 AM 49.1°F9.5°C 23.9°F-4.5°C 37% Calm Calm -- 29.88 in1011.9 mb 0.00 in0.0 mm 0.00 in/hr0.0 mm/hr 0.00 in0.0 mm
02:13 AM 49.3°F9.6°C 24.1°F-4.4°C 37% Calm Calm -- 29.88 in1011.9 mb 0.00 in0.0 mm 0.00 in/hr0.0 mm/hr 0.00 in0.0 mm
02:23 AM 49.1°F9.5°C 23.9°F-4.5°C 37% Calm Calm -- 29.88 in1011.9 mb 0.00 in0.0 mm 0.00 in/hr0.0 mm/hr 0.00 in0.0 mm
02:33 AM 48.9°F9.4°C 23.7°F-4.6°C 37% Calm Calm -- 29.88 in1011.9 mb 0.00 in0.0 mm 0.00 in/hr0.0 mm/hr 0.00 in0.0 mm
02:43 AM 48.4°F9.1°C 23.4°F-4.8°C 37% Calm Calm -- 29.88 in1011.9 mb 0.00 in0.0 mm 0.00 in/hr0.0 mm/hr 0.00 in0.0 mm
02:53 AM 48.4°F9.1°C 13.3°F-10.4°C 24% Calm Calm -- 29.88 in1011.9 mb 0.00 in0.0 mm 0.00 in/hr0.0 mm/hr 0.00 in0.0 mm
03:03 AM 48.7°F9.3°C 10.6°F-11.9°C 21% Calm Calm -- 29.88 in1011.9 mb 0.00 in0.0 mm 0.00 in/hr0.0 mm/hr 0.00 in0.0 mm
03:13 AM 48.7°F9.3°C 8.4°F-13.1°C 19% Calm Calm 3.6 mph5.8 kmh 29.88 in1011.9 mb 0.00 in0.0 mm 0.00 in/hr0.0 mm/hr 0.00 in0.0 mm
03:23 AM 48.7°F9.3°C 8.4°F-13.1°C 19% Calm Calm 2.7 mph4.3 kmh 29.88 in1011.9 mb 0.00 in0.0 mm 0.00 in/hr0.0 mm/hr 0.00 in0.0 mm
03:33 AM 48.7°F9.3°C 8.4°F-13.1°C 19% 1.0 mph NNW1.6 kmh NNW 3.6 mph5.8 kmh 29.88 in1011.9 mb 0.00 in0.0 mm 0.00 in/hr0.0 mm/hr 0.00 in0.0 mm
03:43 AM 48.7°F9.3°C 8.4°F-13.1°C 19% 2.0 mph NNW3.2 kmh NNW 4.9 mph7.9 kmh 29.88 in1011.9 mb 0.00 in0.0 mm 0.00 in/hr0.0 mm/hr 0.00 in0.0 mm
03:53 AM 48.7°F9.3°C 8.4°F-13.1°C 19% 2.0 mph NNW3.2 kmh NNW 5.4 mph8.7 kmh 29.88 in1011.9 mb 0.00 in0.0 mm 0.00 in/hr0.0 mm/hr 0.00 in0.0 mm
04:03 AM 48.7°F9.3°C 8.4°F-13.1°C 19% 2.0 mph NNW3.2 kmh NNW 4.0 mph6.4 kmh 29.88 in1011.9 mb 0.00 in0.0 mm 0.00 in/hr0.0 mm/hr 0.00 in0.0 mm
04:13 AM 48.7°F9.3°C 8.4°F-13.1°C 19% 1.0 mph NNW1.6 kmh NNW -- 29.88 in1011.9 mb 0.00 in0.0 mm 0.00 in/hr0.0 mm/hr 0.00 in0.0 mm
04:23 AM 48.6°F9.2°C 8.2°F-13.2°C 19% Calm Calm -- 29.88 in1011.9 mb 0.00 in0.0 mm 0.00 in/hr0.0 mm/hr 0.00 in0.0 mm
04:33 AM 48.2°F9.0°C 7.9°F-13.4°C 19% Calm Calm -- 29.88 in1011.9 mb 0.00 in0.0 mm 0.00 in/hr0.0 mm/hr 0.00 in0.0 mm
04:43 AM 48.2°F9.0°C 7.9°F-13.4°C 19% Calm Calm -- 29.88 in1011.9 mb 0.00 in0.0 mm 0.00 in/hr0.0 mm/hr 0.00 in0.0 mm
04:53 AM 48.0°F8.9°C 10.9°F-11.7°C 22% Calm Calm -- 29.88 in1011.9 mb 0.00 in0.0 mm 0.00 in/hr0.0 mm/hr 0.00 in0.0 mm
05:03 AM 47.7°F8.7°C 12.7°F-10.7°C 24% Calm Calm -- 29.88 in1011.9 mb 0.00 in0.0 mm 0.00 in/hr0.0 mm/hr 0.00 in0.0 mm
05:13 AM 47.5°F8.6°C 10.6°F-11.9°C 22% Calm Calm -- 29.88 in1011.9 mb 0.00 in0.0 mm 0.00 in/hr0.0 mm/hr 0.00 in0.0 mm
05:23 AM 47.7°F8.7°C 15.3°F-9.3°C 27% Calm Calm -- 29.88 in1011.9 mb 0.00 in0.0 mm 0.00 in/hr0.0 mm/hr 0.00 in0.0 mm
05:34 AM 47.5°F8.6°C 10.6°F-11.9°C 22% Calm Calm -- 29.88 in1011.9 mb 0.00 in0.0 mm 0.00 in/hr0.0 mm/hr 0.00 in0.0 mm
05:44 AM 47.7°F8.7°C 7.5°F-13.6°C 19% Calm Calm 3.1 mph5.0 kmh 29.88 in1011.9 mb 0.00 in0.0 mm 0.00 in/hr0.0 mm/hr 0.00 in0.0 mm
05:54 AM 47.8°F8.8°C 7.5°F-13.6°C 19% Calm Calm 4.0 mph6.4 kmh 29.88 in1011.9 mb 0.00 in0.0 mm 0.00 in/hr0.0 mm/hr 0.00 in0.0 mm
06:04 AM 47.8°F8.8°C 7.5°F-13.6°C 19% Calm Calm 3.1 mph5.0 kmh 29.88 in1011.9 mb 0.00 in0.0 mm 0.00 in/hr0.0 mm/hr 0.00 in0.0 mm
06:14 AM 47.7°F8.7°C 7.5°F-13.6°C 19% 1.0 mph N1.6 kmh N 4.0 mph6.4 kmh 29.88 in1011.9 mb 0.00 in0.0 mm 0.00 in/hr0.0 mm/hr 0.00 in0.0 mm
06:24 AM 47.7°F8.7°C 7.5°F-13.6°C 19% 1.0 mph N1.6 kmh N 5.4 mph8.7 kmh 29.88 in1011.9 mb 0.00 in0.0 mm 0.00 in/hr0.0 mm/hr 0.00 in0.0 mm
06:34 AM 47.7°F8.7°C 7.5°F-13.6°C 19% 1.0 mph N1.6 kmh N 2.7 mph4.3 kmh 29.88 in1011.9 mb 0.00 in0.0 mm 0.00 in/hr0.0 mm/hr 0.00 in0.0 mm
06:44 AM 47.5°F8.6°C 7.3°F-13.7°C 19% Calm Calm 3.6 mph5.8 kmh 29.88 in1011.9 mb 0.00 in0.0 mm 0.00 in/hr0.0 mm/hr 0.00 in0.0 mm
06:54 AM 47.5°F8.6°C 7.3°F-13.7°C 19% Calm Calm 2.7 mph4.3 kmh 29.88 in1011.9 mb 0.00 in0.0 mm 0.00 in/hr0.0 mm/hr 0.00 in0.0 mm
07:04 AM 47.3°F8.5°C 7.2°F-13.8°C 19% Calm Calm -- 29.88 in1011.9 mb 0.00 in0.0 mm 0.00 in/hr0.0 mm/hr 0.00 in0.0 mm
07:14 AM 47.3°F8.5°C 7.2°F-13.8°C 19% Calm Calm 2.7 mph4.3 kmh 29.88 in1011.9 mb 0.00 in0.0 mm 0.00 in/hr0.0 mm/hr 0.00 in0.0 mm
07:24 AM 47.3°F8.5°C 7.2°F-13.8°C 19% Calm Calm 3.1 mph5.0 kmh 29.88 in1011.9 mb 0.00 in0.0 mm 0.00 in/hr0.0 mm/hr 0.00 in0.0 mm
07:34 AM 47.3°F8.5°C 10.4°F-12.0°C 22% Calm Calm 2.7 mph4.3 kmh 29.88 in1011.9 mb 0.00 in0.0 mm 0.00 in/hr0.0 mm/hr 0.00 in0.0 mm
07:44 AM 47.1°F8.4°C 7.0°F-13.9°C 19% Calm Calm 3.6 mph5.8 kmh 29.88 in1011.9 mb 0.00 in0.0 mm 0.00 in/hr0.0 mm/hr 0.00 in0.0 mm
07:54 AM 47.1°F8.4°C 7.0°F-13.9°C 19% 1.0 mph N1.6 kmh N 5.8 mph9.3 kmh 29.88 in1011.9 mb 0.00 in0.0 mm 0.00 in/hr0.0 mm/hr 0.00 in0.0 mm
08:04 AM 46.9°F8.3°C 6.8°F-14.0°C 19% 2.0 mph N3.2 kmh N 6.3 mph10.1 kmh 29.88 in1011.9 mb 0.00 in0.0 mm 0.00 in/hr0.0 mm/hr 0.00 in0.0 mm
08:14 AM 46.8°F8.2°C 6.8°F-14.0°C 19% 2.0 mph NNW3.2 kmh NNW 5.8 mph9.3 kmh 29.88 in1011.9 mb 0.00 in0.0 mm 0.00 in/hr0.0 mm/hr 0.00 in0.0 mm
08:24 AM 46.6°F8.1°C 6.6°F-14.1°C 19% 2.0 mph N3.2 kmh N 4.9 mph7.9 kmh 29.88 in1011.9 mb 0.00 in0.0 mm 0.00 in/hr0.0 mm/hr 0.00 in0.0 mm
08:34 AM 46.4°F8.0°C 6.4°F-14.2°C 19% 2.0 mph N3.2 kmh N 5.8 mph9.3 kmh 29.88 in1011.9 mb 0.00 in0.0 mm 0.00 in/hr0.0 mm/hr 0.00 in0.0 mm
08:44 AM 46.4°F8.0°C 6.4°F-14.2°C 19% 2.0 mph N3.2 kmh N 5.8 mph9.3 kmh 29.88 in1011.9 mb 0.00 in0.0 mm 0.00 in/hr0.0 mm/hr 0.00 in0.0 mm
08:54 AM 46.6°F8.1°C 6.6°F-14.1°C 19% 2.0 mph NNW3.2 kmh NNW 3.1 mph5.0 kmh 29.88 in1011.9 mb 0.00 in0.0 mm 0.00 in/hr0.0 mm/hr 0.00 in0.0 mm
09:04 AM 46.4°F8.0°C 6.4°F-14.2°C 19% 1.0 mph NNW1.6 kmh NNW 4.0 mph6.4 kmh 29.88 in1011.9 mb 0.00 in0.0 mm 0.00 in/hr0.0 mm/hr 0.00 in0.0 mm
09:14 AM 46.2°F7.9°C 7.3°F-13.7°C 20% 1.0 mph NNW1.6 kmh NNW 3.6 mph5.8 kmh 29.88 in1011.9 mb 0.00 in0.0 mm 0.00 in/hr0.0 mm/hr 0.00 in0.0 mm
09:24 AM 46.2°F7.9°C 7.3°F-13.7°C 20% 1.0 mph NNW1.6 kmh NNW 4.9 mph7.9 kmh 29.94 in1013.9 mb 0.00 in0.0 mm 0.00 in/hr0.0 mm/hr 0.00 in0.0 mm
09:34 AM 46.4°F8.0°C 6.4°F-14.2°C 19% Calm Calm -- 29.94 in1013.9 mb 0.00 in0.0 mm 0.00 in/hr0.0 mm/hr 0.00 in0.0 mm
09:44 AM 46.4°F8.0°C 6.4°F-14.2°C 19% Calm Calm 4.5 mph7.2 kmh 29.94 in1013.9 mb 0.00 in0.0 mm 0.00 in/hr0.0 mm/hr 0.00 in0.0 mm
09:54 AM 46.8°F8.2°C 6.8°F-14.0°C 19% Calm Calm 3.1 mph5.0 kmh 29.94 in1013.9 mb 0.00 in0.0 mm 0.00 in/hr0.0 mm/hr 0.00 in0.0 mm
10:05 AM 46.6°F8.1°C 6.6°F-14.1°C 19% 1.0 mph N1.6 kmh N 6.3 mph10.1 kmh 29.94 in1013.9 mb 0.00 in0.0 mm 0.00 in/hr0.0 mm/hr 0.00 in0.0 mm
10:15 AM 46.6°F8.1°C 6.6°F-14.1°C 19% 2.0 mph N3.2 kmh N 5.4 mph8.7 kmh 29.88 in1011.9 mb 0.00 in0.0 mm 0.00 in/hr0.0 mm/hr 0.00 in0.0 mm
10:25 AM 46.4°F8.0°C 6.4°F-14.2°C 19% 2.0 mph N3.2 kmh N 5.8 mph9.3 kmh 29.94 in1013.9 mb 0.00 in0.0 mm 0.00 in/hr0.0 mm/hr 0.00 in0.0 mm
10:35 AM 46.2°F7.9°C 7.3°F-13.7°C 20% 2.0 mph N3.2 kmh N 6.3 mph10.1 kmh 29.94 in1013.9 mb 0.00 in0.0 mm 0.00 in/hr0.0 mm/hr 0.00 in0.0 mm
10:45 AM 46.4°F8.0°C 6.4°F-14.2°C 19% 2.0 mph N3.2 kmh N 7.2 mph11.6 kmh 29.94 in1013.9 mb 0.00 in0.0 mm 0.00 in/hr0.0 mm/hr 0.00 in0.0 mm
10:55 AM 46.9°F8.3°C 6.8°F-14.0°C 19% 2.0 mph NNW3.2 kmh NNW 5.8 mph9.3 kmh 29.94 in1013.9 mb 0.00 in0.0 mm 0.00 in/hr0.0 mm/hr 0.00 in0.0 mm
11:05 AM 47.3°F8.5°C 7.2°F-13.8°C 19% 2.0 mph NNW3.2 kmh NNW 4.9 mph7.9 kmh 29.94 in1013.9 mb 0.00 in0.0 mm 0.00 in/hr0.0 mm/hr 0.00 in0.0 mm
11:15 AM 47.3°F8.5°C 7.2°F-13.8°C 19% 2.0 mph NNW3.2 kmh NNW 4.0 mph6.4 kmh 29.94 in1013.9 mb 0.00 in0.0 mm 0.00 in/hr0.0 mm/hr 0.00 in0.0 mm
11:25 AM 47.1°F8.4°C 7.0°F-13.9°C 19% 2.0 mph NNW3.2 kmh NNW 5.8 mph9.3 kmh 29.94 in1013.9 mb 0.00 in0.0 mm 0.00 in/hr0.0 mm/hr 0.00 in0.0 mm
11:35 AM 47.3°F8.5°C 7.2°F-13.8°C 19% 2.0 mph NNW3.2 kmh NNW 5.8 mph9.3 kmh 29.94 in1013.9 mb 0.00 in0.0 mm 0.00 in/hr0.0 mm/hr 0.00 in0.0 mm
11:45 AM 47.5°F8.6°C 7.3°F-13.7°C 19% 2.0 mph NNW3.2 kmh NNW 6.3 mph10.1 kmh 29.94 in1013.9 mb 0.00 in0.0 mm 0.00 in/hr0.0 mm/hr 0.00 in0.0 mm
11:55 AM 47.3°F8.5°C 7.2°F-13.8°C 19% 2.0 mph NNW3.2 kmh NNW 5.4 mph8.7 kmh 29.88 in1011.9 mb 0.00 in0.0 mm 0.00 in/hr0.0 mm/hr 0.00 in0.0 mm
12:05 PM 47.8°F8.8°C 7.5°F-13.6°C 19% 2.0 mph N3.2 kmh N 5.4 mph8.7 kmh 29.88 in1011.9 mb 0.00 in0.0 mm 0.00 in/hr0.0 mm/hr 0.00 in0.0 mm
12:15 PM 47.8°F8.8°C 7.5°F-13.6°C 19% 1.0 mph NNW1.6 kmh NNW 5.4 mph8.7 kmh 29.88 in1011.9 mb 0.00 in0.0 mm 0.00 in/hr0.0 mm/hr 0.00 in0.0 mm
12:25 PM 48.6°F9.2°C 8.2°F-13.2°C 19% 1.0 mph N1.6 kmh N 4.0 mph6.4 kmh 29.88 in1011.9 mb 0.00 in0.0 mm 0.00 in/hr0.0 mm/hr 0.00 in0.0 mm
12:35 PM 48.7°F9.3°C 8.4°F-13.1°C 19% 1.0 mph N1.6 kmh N 4.9 mph7.9 kmh 29.88 in1011.9 mb 0.00 in0.0 mm 0.00 in/hr0.0 mm/hr 0.00 in0.0 mm
12:45 PM 48.7°F9.3°C 8.4°F-13.1°C 19% 2.0 mph N3.2 kmh N 5.4 mph8.7 kmh 29.88 in1011.9 mb 0.00 in0.0 mm 0.00 in/hr0.0 mm/hr 0.00 in0.0 mm
12:55 PM 49.1°F9.5°C 8.6°F-13.0°C 19% 2.0 mph N3.2 kmh N 7.6 mph12.2 kmh 29.88 in1011.9 mb 0.00 in0.0 mm 0.00 in/hr0.0 mm/hr 0.00 in0.0 mm
01:05 PM 48.4°F9.1°C 8.1°F-13.3°C 19% 2.0 mph N3.2 kmh N 8.7 mph14.0 kmh 29.88 in1011.9 mb 0.00 in0.0 mm 0.00 in/hr0.0 mm/hr 0.00 in0.0 mm
01:15 PM 48.0°F8.9°C 7.7°F-13.5°C 19% 2.0 mph N3.2 kmh N 4.0 mph6.4 kmh 29.88 in1011.9 mb 0.00 in0.0 mm 0.00 in/hr0.0 mm/hr 0.00 in0.0 mm
01:25 PM 48.0°F8.9°C 7.7°F-13.5°C 19% 1.0 mph N1.6 kmh N 6.3 mph10.1 kmh 29.88 in1011.9 mb 0.00 in0.0 mm 0.00 in/hr0.0 mm/hr 0.00 in0.0 mm
01:35 PM 48.0°F8.9°C 7.7°F-13.5°C 19% 1.0 mph N1.6 kmh N 4.0 mph6.4 kmh 29.88 in1011.9 mb 0.00 in0.0 mm 0.00 in/hr0.0 mm/hr 0.00 in0.0 mm
01:45 PM 47.8°F8.8°C 7.5°F-13.6°C 19% 1.0 mph N1.6 kmh N 4.9 mph7.9 kmh 29.88 in1011.9 mb 0.00 in0.0 mm 0.00 in/hr0.0 mm/hr 0.00 in0.0 mm
01:55 PM 47.3°F8.5°C 7.2°F-13.8°C 19% 2.0 mph N3.2 kmh N 6.3 mph10.1 kmh 29.88 in1011.9 mb 0.00 in0.0 mm 0.00 in/hr0.0 mm/hr 0.00 in0.0 mm
02:05 PM 47.1°F8.4°C 7.0°F-13.9°C 19% 3.0 mph NNW4.8 kmh NNW 7.6 mph12.2 kmh 29.88 in1011.9 mb 0.00 in0.0 mm 0.00 in/hr0.0 mm/hr 0.00 in0.0 mm
02:15 PM 47.8°F8.8°C 7.5°F-13.6°C 19% 3.0 mph NNW4.8 kmh NNW 6.3 mph10.1 kmh 29.88 in1011.9 mb 0.00 in0.0 mm 0.00 in/hr0.0 mm/hr 0.00 in0.0 mm
02:25 PM 48.0°F8.9°C 7.7°F-13.5°C 19% 3.0 mph NNW4.8 kmh NNW 8.7 mph14.0 kmh 29.88 in1011.9 mb 0.00 in0.0 mm 0.00 in/hr0.0 mm/hr 0.00 in0.0 mm
02:36 PM 47.8°F8.8°C 7.5°F-13.6°C 19% 3.0 mph NNW4.8 kmh NNW 5.4 mph8.7 kmh 29.88 in1011.9 mb 0.00 in0.0 mm 0.00 in/hr0.0 mm/hr 0.00 in0.0 mm
02:46 PM 47.3°F8.5°C 7.2°F-13.8°C 19% 2.0 mph N3.2 kmh N 2.2 mph3.5 kmh 29.88 in1011.9 mb 0.00 in0.0 mm 0.00 in/hr0.0 mm/hr 0.00 in0.0 mm
02:56 PM 46.8°F8.2°C 6.8°F-14.0°C 19% 1.0 mph N1.6 kmh N 2.2 mph3.5 kmh 29.88 in1011.9 mb 0.00 in0.0 mm 0.00 in/hr0.0 mm/hr 0.00 in0.0 mm
03:37 PM 46.6°F8.1°C 6.6°F-14.1°C 19% 2.0 mph NNW3.2 kmh NNW 3.1 mph5.0 kmh 29.88 in1011.9 mb 0.00 in0.0 mm 0.00 in/hr0.0 mm/hr 0.00 in0.0 mm
03:47 PM 46.4°F8.0°C 6.4°F-14.2°C 19% 1.0 mph NNW1.6 kmh NNW 4.0 mph6.4 kmh 29.88 in1011.9 mb 0.00 in0.0 mm 0.00 in/hr0.0 mm/hr 0.00 in0.0 mm
03:57 PM 46.2°F7.9°C 7.3°F-13.7°C 20% 1.0 mph NNW1.6 kmh NNW 6.3 mph10.1 kmh 29.88 in1011.9 mb 0.00 in0.0 mm 0.00 in/hr0.0 mm/hr 0.00 in0.0 mm
04:22 PM 46.0°F7.8°C 7.2°F-13.8°C 20% 3.0 mph NNW4.8 kmh NNW 5.4 mph8.7 kmh 29.88 in1011.9 mb 0.00 in0.0 mm 0.00 in/hr0.0 mm/hr 0.00 in0.0 mm
04:32 PM 46.0°F7.8°C 7.2°F-13.8°C 20% 3.0 mph NNW4.8 kmh NNW 6.3 mph10.1 kmh 29.88 in1011.9 mb 0.00 in0.0 mm 0.00 in/hr0.0 mm/hr 0.00 in0.0 mm
04:42 PM 45.3°F7.4°C 6.6°F-14.1°C 20% 3.0 mph NNW4.8 kmh NNW 6.3 mph10.1 kmh 29.94 in1013.9 mb 0.00 in0.0 mm 0.00 in/hr0.0 mm/hr 0.00 in0.0 mm
04:52 PM 45.1°F7.3°C 6.4°F-14.2°C 20% 3.0 mph NNW4.8 kmh NNW 4.0 mph6.4 kmh 29.94 in1013.9 mb 0.00 in0.0 mm 0.00 in/hr0.0 mm/hr 0.00 in0.0 mm
05:02 PM 45.1°F7.3°C 6.4°F-14.2°C 20% 2.0 mph NNW3.2 kmh NNW 5.8 mph9.3 kmh 29.94 in1013.9 mb 0.00 in0.0 mm 0.00 in/hr0.0 mm/hr 0.00 in0.0 mm
05:12 PM 45.3°F7.4°C 6.6°F-14.1°C 20% 1.0 mph NNW1.6 kmh NNW 3.6 mph5.8 kmh 29.94 in1013.9 mb 0.00 in0.0 mm 0.00 in/hr0.0 mm/hr 0.00 in0.0 mm
05:22 PM 45.3°F7.4°C 6.6°F-14.1°C 20% 1.0 mph NNW1.6 kmh NNW 3.1 mph5.0 kmh 29.94 in1013.9 mb 0.00 in0.0 mm 0.00 in/hr0.0 mm/hr 0.00 in0.0 mm
05:32 PM 45.3°F7.4°C 6.6°F-14.1°C 20% 1.0 mph NNW1.6 kmh NNW 3.6 mph5.8 kmh 29.94 in1013.9 mb 0.00 in0.0 mm 0.00 in/hr0.0 mm/hr 0.00 in0.0 mm
05:42 PM 45.3°F7.4°C 6.6°F-14.1°C 20% Calm Calm 2.7 mph4.3 kmh 29.94 in1013.9 mb 0.00 in0.0 mm 0.00 in/hr0.0 mm/hr 0.00 in0.0 mm
05:52 PM 45.1°F7.3°C 6.4°F-14.2°C 20% Calm Calm -- 29.94 in1013.9 mb 0.00 in0.0 mm 0.00 in/hr0.0 mm/hr 0.00 in0.0 mm
06:02 PM 44.8°F7.1°C 6.3°F-14.3°C 20% Calm Calm 2.7 mph4.3 kmh 29.94 in1013.9 mb 0.00 in0.0 mm 0.00 in/hr0.0 mm/hr 0.00 in0.0 mm
06:12 PM 44.8°F7.1°C 8.2°F-13.2°C 22% Calm Calm -- 29.94 in1013.9 mb 0.00 in0.0 mm 0.00 in/hr0.0 mm/hr 0.00 in0.0 mm
06:22 PM 44.2°F6.8°C 8.8°F-12.9°C 23% Calm Calm -- 29.94 in1013.9 mb 0.00 in0.0 mm 0.00 in/hr0.0 mm/hr 0.00 in0.0 mm
06:32 PM 43.9°F6.6°C 8.6°F-13.0°C 23% Calm Calm -- 29.94 in1013.9 mb 0.00 in0.0 mm 0.00 in/hr0.0 mm/hr 0.00 in0.0 mm
06:42 PM 43.5°F6.4°C 8.2°F-13.2°C 23% Calm Calm -- 30.00 in1015.9 mb 0.00 in0.0 mm 0.00 in/hr0.0 mm/hr 0.00 in0.0 mm
06:52 PM 43.5°F6.4°C 8.2°F-13.2°C 23% Calm Calm -- 30.00 in1015.9 mb 0.00 in0.0 mm 0.00 in/hr0.0 mm/hr 0.00 in0.0 mm
07:02 PM 43.3°F6.3°C 8.1°F-13.3°C 23% Calm Calm -- 30.00 in1015.9 mb 0.00 in0.0 mm 0.00 in/hr0.0 mm/hr 0.00 in0.0 mm
07:12 PM 43.5°F6.4°C 10.0°F-12.2°C 25% Calm Calm 3.1 mph5.0 kmh 30.00 in1015.9 mb 0.00 in0.0 mm 0.00 in/hr0.0 mm/hr 0.00 in0.0 mm
07:23 PM 43.5°F6.4°C 8.2°F-13.2°C 23% 1.0 mph NNW1.6 kmh NNW 8.1 mph13.0 kmh 30.00 in1015.9 mb 0.00 in0.0 mm 0.00 in/hr0.0 mm/hr 0.00 in0.0 mm
07:33 PM 41.7°F5.4°C 6.6°F-14.1°C 23% 3.0 mph NNW4.8 kmh NNW 10.5 mph16.9 kmh 30.00 in1015.9 mb 0.00 in0.0 mm 0.00 in/hr0.0 mm/hr 0.00 in0.0 mm
07:43 PM 41.0°F5.0°C 10.4°F-12.0°C 28% 4.0 mph NNW6.4 kmh NNW 6.3 mph10.1 kmh 30.06 in1017.9 mb 0.00 in0.0 mm 0.00 in/hr0.0 mm/hr 0.00 in0.0 mm
07:53 PM 40.6°F4.8°C 8.4°F-13.1°C 26% 3.0 mph NNW4.8 kmh NNW 4.0 mph6.4 kmh 30.06 in1017.9 mb 0.00 in0.0 mm 0.00 in/hr0.0 mm/hr 0.00 in0.0 mm
08:03 PM 40.6°F4.8°C 5.7°F-14.6°C 23% 2.0 mph NNW3.2 kmh NNW 8.3 mph13.4 kmh 30.06 in1017.9 mb 0.00 in0.0 mm 0.00 in/hr0.0 mm/hr 0.00 in0.0 mm
08:13 PM 40.6°F4.8°C 3.7°F-15.7°C 21% 3.0 mph NNW4.8 kmh NNW 5.8 mph9.3 kmh 30.06 in1017.9 mb 0.00 in0.0 mm 0.00 in/hr0.0 mm/hr 0.00 in0.0 mm
08:23 PM 40.5°F4.7°C 3.6°F-15.8°C 21% 3.0 mph NNW4.8 kmh NNW 6.3 mph10.1 kmh 30.06 in1017.9 mb 0.00 in0.0 mm 0.00 in/hr0.0 mm/hr 0.00 in0.0 mm
08:33 PM 40.5°F4.7°C 3.6°F-15.8°C 21% 2.0 mph NNW3.2 kmh NNW 3.6 mph5.8 kmh 30.06 in1017.9 mb 0.00 in0.0 mm 0.00 in/hr0.0 mm/hr 0.00 in0.0 mm
08:43 PM 40.3°F4.6°C 3.6°F-15.8°C 21% 1.0 mph N1.6 kmh N 2.7 mph4.3 kmh 30.06 in1017.9 mb 0.00 in0.0 mm 0.00 in/hr0.0 mm/hr 0.00 in0.0 mm
08:53 PM 40.5°F4.7°C 5.5°F-14.7°C 23% Calm Calm -- 30.06 in1017.9 mb 0.00 in0.0 mm 0.00 in/hr0.0 mm/hr 0.00 in0.0 mm
09:03 PM 40.3°F4.6°C 3.6°F-15.8°C 21% Calm Calm -- 30.06 in1017.9 mb 0.00 in0.0 mm 0.00 in/hr0.0 mm/hr 0.00 in0.0 mm
09:13 PM 39.7°F4.3°C 3.0°F-16.1°C 21% Calm Calm -- 30.06 in1017.9 mb 0.00 in0.0 mm 0.00 in/hr0.0 mm/hr 0.00 in0.0 mm
09:23 PM 39.4°F4.1°C 4.6°F-15.2°C 23% Calm Calm -- 30.06 in1017.9 mb 0.00 in0.0 mm 0.00 in/hr0.0 mm/hr 0.00 in0.0 mm
09:33 PM 38.7°F3.7°C 5.0°F-15.0°C 24% Calm Calm -- 30.06 in1017.9 mb 0.00 in0.0 mm 0.00 in/hr0.0 mm/hr 0.00 in0.0 mm
09:43 PM 38.1°F3.4°C 6.3°F-14.3°C 26% Calm Calm -- 30.06 in1017.9 mb 0.00 in0.0 mm 0.00 in/hr0.0 mm/hr 0.00 in0.0 mm
09:53 PM 37.8°F3.2°C 8.4°F-13.1°C 29% Calm Calm -- 30.06 in1017.9 mb 0.00 in0.0 mm 0.00 in/hr0.0 mm/hr 0.00 in0.0 mm
10:03 PM 37.6°F3.1°C 8.2°F-13.2°C 29% Calm Calm -- 30.06 in1017.9 mb 0.00 in0.0 mm 0.00 in/hr0.0 mm/hr 0.00 in0.0 mm
10:14 PM 37.2°F2.9°C 9.3°F-12.6°C 31% Calm Calm -- 30.06 in1017.9 mb 0.00 in0.0 mm 0.00 in/hr0.0 mm/hr 0.00 in0.0 mm
10:24 PM 36.9°F2.7°C 9.9°F-12.3°C 32% Calm Calm -- 30.06 in1017.9 mb 0.00 in0.0 mm 0.00 in/hr0.0 mm/hr 0.00 in0.0 mm
10:34 PM 36.9°F2.7°C 9.9°F-12.3°C 32% Calm Calm -- 30.06 in1017.9 mb 0.00 in0.0 mm 0.00 in/hr0.0 mm/hr 0.00 in0.0 mm
10:44 PM 36.5°F2.5°C 10.2°F-12.1°C 33% Calm Calm -- 30.06 in1017.9 mb 0.00 in0.0 mm 0.00 in/hr0.0 mm/hr 0.00 in0.0 mm
10:54 PM 36.5°F2.5°C 10.8°F-11.8°C 34% Calm Calm -- 30.12 in1020.0 mb 0.00 in0.0 mm 0.00 in/hr0.0 mm/hr 0.00 in0.0 mm
11:04 PM 36.5°F2.5°C 10.8°F-11.8°C 34% Calm Calm -- 30.12 in1020.0 mb 0.00 in0.0 mm 0.00 in/hr0.0 mm/hr 0.00 in0.0 mm
11:15 PM 36.1°F2.3°C 10.6°F-11.9°C 34% Calm Calm -- 30.12 in1020.0 mb 0.00 in0.0 mm 0.00 in/hr0.0 mm/hr 0.00 in0.0 mm
11:25 PM 36.1°F2.3°C 9.9°F-12.3°C 33% Calm Calm 2.7 mph4.3 kmh 30.12 in1020.0 mb 0.00 in0.0 mm 0.00 in/hr0.0 mm/hr 0.00 in0.0 mm
11:35 PM 36.1°F2.3°C 8.4°F-13.1°C 31% Calm Calm 3.1 mph5.0 kmh 30.12 in1020.0 mb 0.00 in0.0 mm 0.00 in/hr0.0 mm/hr 0.00 in0.0 mm
11:45 PM 36.0°F2.2°C 7.5°F-13.6°C 30% Calm Calm -- 30.12 in1020.0 mb 0.00 in0.0 mm 0.00 in/hr0.0 mm/hr 0.00 in0.0 mm
11:55 PM 36.0°F2.2°C 7.5°F-13.6°C 30% Calm Calm -- 30.12 in1020.0 mb 0.00 in0.0 mm 0.00 in/hr0.0 mm/hr 0.00 in0.0 mm